sensor_id;sensor_type;location;lat;lon;timestamp;temperature;humidity
57709;SHT35;42558;52.388;13.390;2023-12-14T00:00:40;4.45;94.63
57709;SHT35;42558;52.388;13.390;2023-12-14T00:03:09;4.41;94.61
57709;SHT35;42558;52.388;13.390;2023-12-14T00:05:37;4.46;94.62
57709;SHT35;42558;52.388;13.390;2023-12-14T00:08:06;4.47;94.64
57709;SHT35;42558;52.388;13.390;2023-12-14T00:10:34;4.42;94.60
57709;SHT35;42558;52.388;13.390;2023-12-14T00:13:03;4.43;94.60
57709;SHT35;42558;52.388;13.390;2023-12-14T00:15:31;4.43;94.59
57709;SHT35;42558;52.388;13.390;2023-12-14T00:17:59;4.41;94.57
57709;SHT35;42558;52.388;13.390;2023-12-14T00:20:28;4.39;94.50
57709;SHT35;42558;52.388;13.390;2023-12-14T00:22:56;4.37;94.50
57709;SHT35;42558;52.388;13.390;2023-12-14T00:25:25;4.35;94.50
57709;SHT35;42558;52.388;13.390;2023-12-14T00:27:53;4.36;94.50
57709;SHT35;42558;52.388;13.390;2023-12-14T00:30:21;4.36;94.50
57709;SHT35;42558;52.388;13.390;2023-12-14T00:32:50;4.35;94.49
57709;SHT35;42558;52.388;13.390;2023-12-14T00:35:18;4.33;94.48
57709;SHT35;42558;52.388;13.390;2023-12-14T00:37:47;4.32;94.45
57709;SHT35;42558;52.388;13.390;2023-12-14T00:40:15;4.30;94.40
57709;SHT35;42558;52.388;13.390;2023-12-14T00:42:44;4.33;94.48
57709;SHT35;42558;52.388;13.390;2023-12-14T00:45:12;4.36;94.50
57709;SHT35;42558;52.388;13.390;2023-12-14T00:47:40;4.29;94.40
57709;SHT35;42558;52.388;13.390;2023-12-14T00:50:09;4.28;94.40
57709;SHT35;42558;52.388;13.390;2023-12-14T00:52:37;4.28;94.40
57709;SHT35;42558;52.388;13.390;2023-12-14T00:55:06;4.25;94.38
57709;SHT35;42558;52.388;13.390;2023-12-14T00:57:34;4.27;94.39
57709;SHT35;42558;52.388;13.390;2023-12-14T01:00:03;4.24;94.38
57709;SHT35;42558;52.388;13.390;2023-12-14T01:02:34;4.21;94.32
57709;SHT35;42558;52.388;13.390;2023-12-14T01:05:05;4.17;94.32
57709;SHT35;42558;52.388;13.390;2023-12-14T01:07:35;4.16;94.33
57709;SHT35;42558;52.388;13.390;2023-12-14T01:10:05;4.16;94.34
57709;SHT35;42558;52.388;13.390;2023-12-14T01:12:36;4.10;94.30
57709;SHT35;42558;52.388;13.390;2023-12-14T01:15:07;4.06;94.30
57709;SHT35;42558;52.388;13.390;2023-12-14T01:17:37;4.03;94.30
57709;SHT35;42558;52.388;13.390;2023-12-14T01:20:08;4.01;94.30
57709;SHT35;42558;52.388;13.390;2023-12-14T01:22:40;3.98;94.30
57709;SHT35;42558;52.388;13.390;2023-12-14T01:25:10;3.97;94.31
57709;SHT35;42558;52.388;13.390;2023-12-14T01:27:40;4.00;94.38
57709;SHT35;42558;52.388;13.390;2023-12-14T01:30:10;4.02;94.39
57709;SHT35;42558;52.388;13.390;2023-12-14T01:32:41;4.01;94.38
57709;SHT35;42558;52.388;13.390;2023-12-14T01:35:09;3.90;94.30
57709;SHT35;42558;52.388;13.390;2023-12-14T01:37:37;3.88;94.30
57709;SHT35;42558;52.388;13.390;2023-12-14T01:40:06;3.88;94.30
57709;SHT35;42558;52.388;13.390;2023-12-14T01:42:37;3.83;94.30
57709;SHT35;42558;52.388;13.390;2023-12-14T01:45:06;3.79;94.29
57709;SHT35;42558;52.388;13.390;2023-12-14T01:47:34;3.74;94.24
57709;SHT35;42558;52.388;13.390;2023-12-14T01:50:03;3.72;94.30
57709;SHT35;42558;52.388;13.390;2023-12-14T01:52:31;3.71;94.27
57709;SHT35;42558;52.388;13.390;2023-12-14T01:54:59;3.73;94.29
57709;SHT35;42558;52.388;13.390;2023-12-14T01:57:32;3.75;94.30
57709;SHT35;42558;52.388;13.390;2023-12-14T02:00:02;3.75;94.30
57709;SHT35;42558;52.388;13.390;2023-12-14T02:02:31;3.77;94.30
57709;SHT35;42558;52.388;13.390;2023-12-14T02:05:05;3.73;94.30
57709;SHT35;42558;52.388;13.390;2023-12-14T02:07:35;3.69;94.30
57709;SHT35;42558;52.388;13.390;2023-12-14T02:10:05;3.70;94.30
57709;SHT35;42558;52.388;13.390;2023-12-14T02:12:36;3.69;94.30
57709;SHT35;42558;52.388;13.390;2023-12-14T02:15:06;3.72;94.29
57709;SHT35;42558;52.388;13.390;2023-12-14T02:17:36;3.70;94.28
57709;SHT35;42558;52.388;13.390;2023-12-14T02:20:07;3.65;94.27
57709;SHT35;42558;52.388;13.390;2023-12-14T02:25:20;3.65;94.29
57709;SHT35;42558;52.388;13.390;2023-12-14T02:27:51;3.66;94.30
57709;SHT35;42558;52.388;13.390;2023-12-14T02:30:21;3.63;94.28
57709;SHT35;42558;52.388;13.390;2023-12-14T02:32:51;3.60;94.21
57709;SHT35;42558;52.388;13.390;2023-12-14T02:35:21;3.58;94.22
57709;SHT35;42558;52.388;13.390;2023-12-14T02:37:52;3.59;94.21
57709;SHT35;42558;52.388;13.390;2023-12-14T02:40:21;3.56;94.20
57709;SHT35;42558;52.388;13.390;2023-12-14T02:42:50;3.56;94.19
57709;SHT35;42558;52.388;13.390;2023-12-14T02:45:18;3.55;94.20
57709;SHT35;42558;52.388;13.390;2023-12-14T02:47:47;3.58;94.24
57709;SHT35;42558;52.388;13.390;2023-12-14T02:50:18;3.63;94.27
57709;SHT35;42558;52.388;13.390;2023-12-14T02:52:47;3.56;94.18
57709;SHT35;42558;52.388;13.390;2023-12-14T02:55:15;3.46;94.10
57709;SHT35;42558;52.388;13.390;2023-12-14T02:57:43;3.44;94.07
57709;SHT35;42558;52.388;13.390;2023-12-14T03:00:12;3.42;94.03
57709;SHT35;42558;52.388;13.390;2023-12-14T03:02:40;3.39;94.02
57709;SHT35;42558;52.388;13.390;2023-12-14T03:05:09;3.42;94.10
57709;SHT35;42558;52.388;13.390;2023-12-14T03:07:37;3.47;94.11
57709;SHT35;42558;52.388;13.390;2023-12-14T03:10:06;3.46;94.06
57709;SHT35;42558;52.388;13.390;2023-12-14T03:12:34;3.44;94.08
57709;SHT35;42558;52.388;13.390;2023-12-14T03:15:03;3.43;94.01
57709;SHT35;42558;52.388;13.390;2023-12-14T03:17:31;3.42;94.00
57709;SHT35;42558;52.388;13.390;2023-12-14T03:19:59;3.42;93.96
57709;SHT35;42558;52.388;13.390;2023-12-14T03:22:28;3.41;93.97
57709;SHT35;42558;52.388;13.390;2023-12-14T03:24:56;3.41;93.99
57709;SHT35;42558;52.388;13.390;2023-12-14T03:27:24;3.34;93.88
57709;SHT35;42558;52.388;13.390;2023-12-14T03:29:53;3.33;93.90
57709;SHT35;42558;52.388;13.390;2023-12-14T03:32:21;3.33;93.85
57709;SHT35;42558;52.388;13.390;2023-12-14T03:34:50;3.31;93.84
57709;SHT35;42558;52.388;13.390;2023-12-14T03:37:18;3.32;93.85
57709;SHT35;42558;52.388;13.390;2023-12-14T03:39:46;3.32;93.83
57709;SHT35;42558;52.388;13.390;2023-12-14T03:42:15;3.37;93.90
57709;SHT35;42558;52.388;13.390;2023-12-14T03:44:43;3.38;93.90
57709;SHT35;42558;52.388;13.390;2023-12-14T03:47:12;3.35;93.86
57709;SHT35;42558;52.388;13.390;2023-12-14T03:49:40;3.33;93.84
57709;SHT35;42558;52.388;13.390;2023-12-14T03:52:09;3.30;93.80
57709;SHT35;42558;52.388;13.390;2023-12-14T03:54:37;3.28;93.81
57709;SHT35;42558;52.388;13.390;2023-12-14T03:57:05;3.29;93.81
57709;SHT35;42558;52.388;13.390;2023-12-14T03:59:34;3.30;93.87
57709;SHT35;42558;52.388;13.390;2023-12-14T04:02:08;3.32;93.90
57709;SHT35;42558;52.388;13.390;2023-12-14T04:04:38;3.33;93.88
57709;SHT35;42558;52.388;13.390;2023-12-14T04:07:09;3.36;93.91
57709;SHT35;42558;52.388;13.390;2023-12-14T04:09:39;3.29;93.89
57709;SHT35;42558;52.388;13.390;2023-12-14T04:12:09;3.23;93.83
57709;SHT35;42558;52.388;13.390;2023-12-14T04:14:39;3.26;93.90
57709;SHT35;42558;52.388;13.390;2023-12-14T04:17:09;3.27;93.91
57709;SHT35;42558;52.388;13.390;2023-12-14T04:19:39;3.21;93.90
57709;SHT35;42558;52.388;13.390;2023-12-14T04:22:09;3.19;93.90
57709;SHT35;42558;52.388;13.390;2023-12-14T04:24:37;3.22;93.96
57709;SHT35;42558;52.388;13.390;2023-12-14T04:27:06;3.19;93.95
57709;SHT35;42558;52.388;13.390;2023-12-14T04:29:34;3.17;93.99
57709;SHT35;42558;52.388;13.390;2023-12-14T04:32:03;3.16;94.00
57709;SHT35;42558;52.388;13.390;2023-12-14T04:34:31;3.15;94.05
57709;SHT35;42558;52.388;13.390;2023-12-14T04:36:59;3.16;94.08
57709;SHT35;42558;52.388;13.390;2023-12-14T04:39:28;3.17;94.10
57709;SHT35;42558;52.388;13.390;2023-12-14T04:41:56;3.20;94.10
57709;SHT35;42558;52.388;13.390;2023-12-14T04:44:25;3.21;94.10
57709;SHT35;42558;52.388;13.390;2023-12-14T04:46:53;3.19;94.10
57709;SHT35;42558;52.388;13.390;2023-12-14T04:49:21;3.21;94.10
57709;SHT35;42558;52.388;13.390;2023-12-14T04:51:50;3.25;94.11
57709;SHT35;42558;52.388;13.390;2023-12-14T04:54:18;3.26;94.17
57709;SHT35;42558;52.388;13.390;2023-12-14T04:56:47;3.26;94.12
57709;SHT35;42558;52.388;13.390;2023-12-14T04:59:15;3.24;94.12
57709;SHT35;42558;52.388;13.390;2023-12-14T05:01:44;3.26;94.14
57709;SHT35;42558;52.388;13.390;2023-12-14T05:04:12;3.25;94.10
57709;SHT35;42558;52.388;13.390;2023-12-14T05:06:40;3.24;94.11
57709;SHT35;42558;52.388;13.390;2023-12-14T05:09:09;3.27;94.12
57709;SHT35;42558;52.388;13.390;2023-12-14T05:11:40;3.31;94.20
57709;SHT35;42558;52.388;13.390;2023-12-14T05:14:09;3.30;94.17
57709;SHT35;42558;52.388;13.390;2023-12-14T05:16:37;3.30;94.12
57709;SHT35;42558;52.388;13.390;2023-12-14T05:19:06;3.30;94.11
57709;SHT35;42558;52.388;13.390;2023-12-14T05:21:34;3.26;94.11
57709;SHT35;42558;52.388;13.390;2023-12-14T05:24:02;3.26;94.10
57709;SHT35;42558;52.388;13.390;2023-12-14T05:26:31;3.26;94.13
57709;SHT35;42558;52.388;13.390;2023-12-14T05:28:59;3.26;94.10
57709;SHT35;42558;52.388;13.390;2023-12-14T05:31:28;3.25;94.10
57709;SHT35;42558;52.388;13.390;2023-12-14T05:33:56;3.24;94.10
57709;SHT35;42558;52.388;13.390;2023-12-14T05:36:25;3.23;94.11
57709;SHT35;42558;52.388;13.390;2023-12-14T05:38:53;3.26;94.12
57709;SHT35;42558;52.388;13.390;2023-12-14T05:41:21;3.21;94.10
57709;SHT35;42558;52.388;13.390;2023-12-14T05:43:50;3.20;94.10
57709;SHT35;42558;52.388;13.390;2023-12-14T05:46:22;3.21;94.10
57709;SHT35;42558;52.388;13.390;2023-12-14T05:48:52;3.23;94.12
57709;SHT35;42558;52.388;13.390;2023-12-14T05:51:28;3.24;94.10
57709;SHT35;42558;52.388;13.390;2023-12-14T05:54:00;3.24;94.10
57709;SHT35;42558;52.388;13.390;2023-12-14T05:56:30;3.28;94.11
57709;SHT35;42558;52.388;13.390;2023-12-14T05:59:00;3.26;94.10
57709;SHT35;42558;52.388;13.390;2023-12-14T06:01:30;3.26;94.10
57709;SHT35;42558;52.388;13.390;2023-12-14T06:04:00;3.28;94.10
57709;SHT35;42558;52.388;13.390;2023-12-14T06:06:31;3.29;94.10
57709;SHT35;42558;52.388;13.390;2023-12-14T06:09:01;3.30;94.10
57709;SHT35;42558;52.388;13.390;2023-12-14T06:11:32;3.31;94.11
57709;SHT35;42558;52.388;13.390;2023-12-14T06:14:01;3.31;94.10
57709;SHT35;42558;52.388;13.390;2023-12-14T06:16:31;3.32;94.10
57709;SHT35;42558;52.388;13.390;2023-12-14T06:19:00;3.30;94.10
57709;SHT35;42558;52.388;13.390;2023-12-14T06:21:28;3.29;94.10
57709;SHT35;42558;52.388;13.390;2023-12-14T06:23:56;3.27;94.09
57709;SHT35;42558;52.388;13.390;2023-12-14T06:26:28;3.30;94.10
57709;SHT35;42558;52.388;13.390;2023-12-14T06:28:56;3.30;94.10
57709;SHT35;42558;52.388;13.390;2023-12-14T06:31:25;3.32;94.09
57709;SHT35;42558;52.388;13.390;2023-12-14T06:33:53;3.30;94.09
57709;SHT35;42558;52.388;13.390;2023-12-14T06:36:27;3.29;94.09
57709;SHT35;42558;52.388;13.390;2023-12-14T06:38:59;3.31;94.08
57709;SHT35;42558;52.388;13.390;2023-12-14T06:41:30;3.33;94.10
57709;SHT35;42558;52.388;13.390;2023-12-14T06:44:00;3.36;94.09
57709;SHT35;42558;52.388;13.390;2023-12-14T06:46:30;3.36;94.07
57709;SHT35;42558;52.388;13.390;2023-12-14T06:49:00;3.37;94.08
57709;SHT35;42558;52.388;13.390;2023-12-14T06:51:30;3.37;94.07
57709;SHT35;42558;52.388;13.390;2023-12-14T06:54:00;3.32;94.02
57709;SHT35;42558;52.388;13.390;2023-12-14T06:56:30;3.31;94.00
57709;SHT35;42558;52.388;13.390;2023-12-14T06:58:59;3.29;94.00
57709;SHT35;42558;52.388;13.390;2023-12-14T07:01:29;3.31;94.00
57709;SHT35;42558;52.388;13.390;2023-12-14T07:03:58;3.32;93.96
57709;SHT35;42558;52.388;13.390;2023-12-14T07:06:26;3.31;93.92
57709;SHT35;42558;52.388;13.390;2023-12-14T07:08:55;3.27;93.89
57709;SHT35;42558;52.388;13.390;2023-12-14T07:11:23;3.31;93.90
57709;SHT35;42558;52.388;13.390;2023-12-14T07:13:51;3.30;93.89
57709;SHT35;42558;52.388;13.390;2023-12-14T07:16:20;3.30;93.90
57709;SHT35;42558;52.388;13.390;2023-12-14T07:18:48;3.33;93.90
57709;SHT35;42558;52.388;13.390;2023-12-14T07:21:17;3.32;93.85
57709;SHT35;42558;52.388;13.390;2023-12-14T07:23:45;3.31;93.82
57709;SHT35;42558;52.388;13.390;2023-12-14T07:26:13;3.28;93.80
57709;SHT35;42558;52.388;13.390;2023-12-14T07:28:42;3.30;93.80
57709;SHT35;42558;52.388;13.390;2023-12-14T07:31:10;3.31;93.80
57709;SHT35;42558;52.388;13.390;2023-12-14T07:33:39;3.30;93.79
57709;SHT35;42558;52.388;13.390;2023-12-14T07:36:07;3.32;93.76
57709;SHT35;42558;52.388;13.390;2023-12-14T07:38:36;3.32;93.73
57709;SHT35;42558;52.388;13.390;2023-12-14T07:42:42;4.15;94.84
57709;SHT35;42558;52.388;13.390;2023-12-14T07:45:12;3.73;94.66
57709;SHT35;42558;52.388;13.390;2023-12-14T07:47:42;3.53;94.06
57709;SHT35;42558;52.388;13.390;2023-12-14T07:50:12;3.48;93.76
57709;SHT35;42558;52.388;13.390;2023-12-14T07:52:42;3.43;93.53
57709;SHT35;42558;52.388;13.390;2023-12-14T07:55:12;3.44;93.45
57709;SHT35;42558;52.388;13.390;2023-12-14T07:57:46;3.44;93.40
57709;SHT35;42558;52.388;13.390;2023-12-14T08:00:16;3.38;93.15
57709;SHT35;42558;52.388;13.390;2023-12-14T08:02:47;3.41;93.19
57709;SHT35;42558;52.388;13.390;2023-12-14T08:05:17;3.43;93.20
57709;SHT35;42558;52.388;13.390;2023-12-14T08:07:45;3.44;93.20
57709;SHT35;42558;52.388;13.390;2023-12-14T08:10:14;3.47;93.21
57709;SHT35;42558;52.388;13.390;2023-12-14T08:12:42;3.47;93.20
57709;SHT35;42558;52.388;13.390;2023-12-14T08:15:11;3.48;93.20
57709;SHT35;42558;52.388;13.390;2023-12-14T08:17:39;3.51;93.18
57709;SHT35;42558;52.388;13.390;2023-12-14T08:20:08;3.46;93.10
57709;SHT35;42558;52.388;13.390;2023-12-14T08:22:39;3.48;93.11
57709;SHT35;42558;52.388;13.390;2023-12-14T08:25:14;3.50;93.16
57709;SHT35;42558;52.388;13.390;2023-12-14T08:27:44;3.53;93.15
57709;SHT35;42558;52.388;13.390;2023-12-14T08:30:14;3.53;93.10
57709;SHT35;42558;52.388;13.390;2023-12-14T08:32:45;3.54;93.10
57709;SHT35;42558;52.388;13.390;2023-12-14T08:35:14;3.54;93.09
57709;SHT35;42558;52.388;13.390;2023-12-14T08:37:45;3.51;93.00
57709;SHT35;42558;52.388;13.390;2023-12-14T08:40:14;3.50;92.99
57709;SHT35;42558;52.388;13.390;2023-12-14T08:42:44;3.54;93.00
57709;SHT35;42558;52.388;13.390;2023-12-14T08:45:17;3.54;93.00
57709;SHT35;42558;52.388;13.390;2023-12-14T08:47:46;3.55;93.00
57709;SHT35;42558;52.388;13.390;2023-12-14T08:50:16;3.58;93.00
57709;SHT35;42558;52.388;13.390;2023-12-14T08:52:45;3.60;92.96
57709;SHT35;42558;52.388;13.390;2023-12-14T08:55:13;3.62;92.92
57709;SHT35;42558;52.388;13.390;2023-12-14T08:57:42;3.61;92.90
57709;SHT35;42558;52.388;13.390;2023-12-14T09:00:11;3.60;92.80
57709;SHT35;42558;52.388;13.390;2023-12-14T09:02:45;3.59;92.78
57709;SHT35;42558;52.388;13.390;2023-12-14T09:05:15;3.63;92.80
57709;SHT35;42558;52.388;13.390;2023-12-14T09:07:46;3.61;92.65
57709;SHT35;42558;52.388;13.390;2023-12-14T09:10:17;3.62;92.60
57709;SHT35;42558;52.388;13.390;2023-12-14T09:12:47;3.66;92.65
57709;SHT35;42558;52.388;13.390;2023-12-14T09:15:17;3.70;92.66
57709;SHT35;42558;52.388;13.390;2023-12-14T09:17:47;3.69;92.57
57709;SHT35;42558;52.388;13.390;2023-12-14T09:20:16;3.68;92.50
57709;SHT35;42558;52.388;13.390;2023-12-14T09:22:47;3.68;92.50
57709;SHT35;42558;52.388;13.390;2023-12-14T09:25:17;3.68;92.47
57709;SHT35;42558;52.388;13.390;2023-12-14T09:27:47;3.68;92.41
57709;SHT35;42558;52.388;13.390;2023-12-14T09:30:17;3.70;92.41
57709;SHT35;42558;52.388;13.390;2023-12-14T09:32:47;3.70;92.39
57709;SHT35;42558;52.388;13.390;2023-12-14T09:35:18;3.63;92.20
57709;SHT35;42558;52.388;13.390;2023-12-14T09:37:48;3.58;92.16
57709;SHT35;42558;52.388;13.390;2023-12-14T09:40:19;3.59;92.20
57709;SHT35;42558;52.388;13.390;2023-12-14T09:43:06;3.56;92.10
57709;SHT35;42558;52.388;13.390;2023-12-14T09:45:38;3.60;92.18
57709;SHT35;42558;52.388;13.390;2023-12-14T09:48:11;3.66;92.24
57709;SHT35;42558;52.388;13.390;2023-12-14T09:50:42;3.63;92.18
57709;SHT35;42558;52.388;13.390;2023-12-14T09:53:14;3.61;92.12
57709;SHT35;42558;52.388;13.390;2023-12-14T09:55:44;3.62;92.12
57709;SHT35;42558;52.388;13.390;2023-12-14T09:58:14;3.63;92.15
57709;SHT35;42558;52.388;13.390;2023-12-14T10:00:44;3.53;91.80
57709;SHT35;42558;52.388;13.390;2023-12-14T10:03:21;3.59;91.97
57709;SHT35;42558;52.388;13.390;2023-12-14T10:05:57;3.69;92.07
57709;SHT35;42558;52.388;13.390;2023-12-14T10:08:32;3.75;92.09
57709;SHT35;42558;52.388;13.390;2023-12-14T10:11:02;3.81;92.10
57709;SHT35;42558;52.388;13.390;2023-12-14T10:13:43;3.79;92.04
57709;SHT35;42558;52.388;13.390;2023-12-14T10:16:25;3.77;91.95
57709;SHT35;42558;52.388;13.390;2023-12-14T10:18:56;3.81;92.02
57709;SHT35;42558;52.388;13.390;2023-12-14T10:21:27;3.79;91.96
57709;SHT35;42558;52.388;13.390;2023-12-14T10:23:57;3.73;91.79
57709;SHT35;42558;52.388;13.390;2023-12-14T10:26:27;3.69;91.71
57709;SHT35;42558;52.388;13.390;2023-12-14T10:28:57;3.71;91.76
57709;SHT35;42558;52.388;13.390;2023-12-14T10:31:27;3.71;91.63
57709;SHT35;42558;52.388;13.390;2023-12-14T10:33:57;3.78;91.71
57709;SHT35;42558;52.388;13.390;2023-12-14T10:36:27;3.78;91.68
57709;SHT35;42558;52.388;13.390;2023-12-14T10:38:58;3.84;91.72
57709;SHT35;42558;52.388;13.390;2023-12-14T10:41:28;3.84;91.68
57709;SHT35;42558;52.388;13.390;2023-12-14T10:44:00;3.80;91.54
57709;SHT35;42558;52.388;13.390;2023-12-14T10:46:52;3.81;91.55
57709;SHT35;42558;52.388;13.390;2023-12-14T10:49:25;3.82;91.50
57709;SHT35;42558;52.388;13.390;2023-12-14T10:51:58;3.81;91.43
57709;SHT35;42558;52.388;13.390;2023-12-14T10:54:30;3.83;91.37
57709;SHT35;42558;52.388;13.390;2023-12-14T10:57:05;3.82;91.33
57709;SHT35;42558;52.388;13.390;2023-12-14T10:59:37;3.87;91.39
57709;SHT35;42558;52.388;13.390;2023-12-14T11:02:08;3.88;91.30
57709;SHT35;42558;52.388;13.390;2023-12-14T11:04:55;3.88;91.27
57709;SHT35;42558;52.388;13.390;2023-12-14T11:13:03;3.88;91.17
57709;SHT35;42558;52.388;13.390;2023-12-14T11:15:38;3.80;90.93
57709;SHT35;42558;52.388;13.390;2023-12-14T11:20:59;3.77;90.90
57709;SHT35;42558;52.388;13.390;2023-12-14T11:23:37;3.78;90.93
57709;SHT35;42558;52.388;13.390;2023-12-14T11:26:09;3.77;90.87
57709;SHT35;42558;52.388;13.390;2023-12-14T11:28:40;3.83;90.99
57709;SHT35;42558;52.388;13.390;2023-12-14T11:31:15;3.79;90.85
57709;SHT35;42558;52.388;13.390;2023-12-14T11:33:46;3.80;90.81
57709;SHT35;42558;52.388;13.390;2023-12-14T11:36:17;3.85;90.90
57709;SHT35;42558;52.388;13.390;2023-12-14T11:38:48;3.83;90.71
57709;SHT35;42558;52.388;13.390;2023-12-14T11:41:21;3.82;90.74
57709;SHT35;42558;52.388;13.390;2023-12-14T11:43:51;3.86;90.69
57709;SHT35;42558;52.388;13.390;2023-12-14T11:46:21;3.88;90.68
57709;SHT35;42558;52.388;13.390;2023-12-14T11:48:52;3.82;90.47
57709;SHT35;42558;52.388;13.390;2023-12-14T11:51:22;3.81;90.43
57709;SHT35;42558;52.388;13.390;2023-12-14T11:53:52;3.87;90.57
57709;SHT35;42558;52.388;13.390;2023-12-14T11:56:22;3.94;90.59
57709;SHT35;42558;52.388;13.390;2023-12-14T11:58:54;3.95;90.52
57709;SHT35;42558;52.388;13.390;2023-12-14T12:01:24;3.92;90.36
57709;SHT35;42558;52.388;13.390;2023-12-14T12:03:57;3.98;90.47
57709;SHT35;42558;52.388;13.390;2023-12-14T12:06:40;3.99;90.43
57709;SHT35;42558;52.388;13.390;2023-12-14T12:09:08;4.03;90.42
57709;SHT35;42558;52.388;13.390;2023-12-14T12:11:40;4.04;90.44
57709;SHT35;42558;52.388;13.390;2023-12-14T12:14:10;3.95;90.27
57709;SHT35;42558;52.388;13.390;2023-12-14T12:16:40;3.90;90.23
57709;SHT35;42558;52.388;13.390;2023-12-14T12:19:10;3.90;90.28
57709;SHT35;42558;52.388;13.390;2023-12-14T12:21:40;3.95;90.34
57709;SHT35;42558;52.388;13.390;2023-12-14T12:24:10;3.99;90.37
57709;SHT35;42558;52.388;13.390;2023-12-14T12:26:54;4.00;90.33
57709;SHT35;42558;52.388;13.390;2023-12-14T12:29:25;3.93;90.18
57709;SHT35;42558;52.388;13.390;2023-12-14T12:31:55;3.99;90.30
57709;SHT35;42558;52.388;13.390;2023-12-14T12:34:26;3.99;90.29
57709;SHT35;42558;52.388;13.390;2023-12-14T12:36:56;3.96;90.16
57709;SHT35;42558;52.388;13.390;2023-12-14T12:39:27;3.90;90.10
57709;SHT35;42558;52.388;13.390;2023-12-14T12:41:58;3.93;90.21
57709;SHT35;42558;52.388;13.390;2023-12-14T12:44:27;3.96;90.27
57709;SHT35;42558;52.388;13.390;2023-12-14T12:46:56;3.98;90.20
57709;SHT35;42558;52.388;13.390;2023-12-14T12:49:39;3.99;90.20
57709;SHT35;42558;52.388;13.390;2023-12-14T12:52:10;3.99;90.21
57709;SHT35;42558;52.388;13.390;2023-12-14T12:54:40;4.01;90.27
57709;SHT35;42558;52.388;13.390;2023-12-14T12:57:10;3.94;90.14
57709;SHT35;42558;52.388;13.390;2023-12-14T12:59:40;3.93;90.16
57709;SHT35;42558;52.388;13.390;2023-12-14T13:02:10;3.98;90.25
57709;SHT35;42558;52.388;13.390;2023-12-14T13:04:40;3.93;90.16
57709;SHT35;42558;52.388;13.390;2023-12-14T13:07:10;3.98;90.36
57709;SHT35;42558;52.388;13.390;2023-12-14T13:09:41;3.96;90.35
57709;SHT35;42558;52.388;13.390;2023-12-14T13:12:11;3.99;90.46
57709;SHT35;42558;52.388;13.390;2023-12-14T13:14:41;4.04;90.50
57709;SHT35;42558;52.388;13.390;2023-12-14T13:17:11;4.04;90.42
57709;SHT35;42558;52.388;13.390;2023-12-14T13:19:39;4.05;90.40
57709;SHT35;42558;52.388;13.390;2023-12-14T13:22:08;4.07;90.39
57709;SHT35;42558;52.388;13.390;2023-12-14T13:24:39;4.09;90.40
57709;SHT35;42558;52.388;13.390;2023-12-14T13:27:07;4.13;90.41
57709;SHT35;42558;52.388;13.390;2023-12-14T13:29:36;4.12;90.33
57709;SHT35;42558;52.388;13.390;2023-12-14T13:32:05;4.10;90.28
57709;SHT35;42558;52.388;13.390;2023-12-14T13:34:33;4.02;90.12
57709;SHT35;42558;52.388;13.390;2023-12-14T13:37:03;3.99;90.05
57709;SHT35;42558;52.388;13.390;2023-12-14T13:39:34;4.01;90.14
57709;SHT35;42558;52.388;13.390;2023-12-14T13:42:07;4.04;90.14
57709;SHT35;42558;52.388;13.390;2023-12-14T13:44:37;4.05;90.10
57709;SHT35;42558;52.388;13.390;2023-12-14T13:47:07;4.08;90.12
57709;SHT35;42558;52.388;13.390;2023-12-14T13:49:37;4.10;90.15
57709;SHT35;42558;52.388;13.390;2023-12-14T13:52:07;4.10;90.10
57709;SHT35;42558;52.388;13.390;2023-12-14T13:54:37;4.09;90.10
57709;SHT35;42558;52.388;13.390;2023-12-14T13:57:06;4.07;90.02
57709;SHT35;42558;52.388;13.390;2023-12-14T13:59:36;4.05;90.04
57709;SHT35;42558;52.388;13.390;2023-12-14T14:02:06;4.06;90.12
57709;SHT35;42558;52.388;13.390;2023-12-14T14:04:36;4.05;90.07
57709;SHT35;42558;52.388;13.390;2023-12-14T14:07:06;4.04;90.11
57709;SHT35;42558;52.388;13.390;2023-12-14T14:09:36;4.02;90.20
57709;SHT35;42558;52.388;13.390;2023-12-14T14:12:06;4.02;90.21
57709;SHT35;42558;52.388;13.390;2023-12-14T14:14:37;3.96;90.14
57709;SHT35;42558;52.388;13.390;2023-12-14T14:17:07;3.86;89.99
57709;SHT35;42558;52.388;13.390;2023-12-14T14:19:37;3.86;90.10
57709;SHT35;42558;52.388;13.390;2023-12-14T14:22:07;3.88;90.19
57709;SHT35;42558;52.388;13.390;2023-12-14T14:24:38;3.86;90.17
57709;SHT35;42558;52.388;13.390;2023-12-14T14:27:07;3.89;90.26
57709;SHT35;42558;52.388;13.390;2023-12-14T14:29:37;3.87;90.21
57709;SHT35;42558;52.388;13.390;2023-12-14T14:32:07;3.87;90.26
57709;SHT35;42558;52.388;13.390;2023-12-14T14:34:37;3.87;90.24
57709;SHT35;42558;52.388;13.390;2023-12-14T14:37:08;3.84;90.20
57709;SHT35;42558;52.388;13.390;2023-12-14T14:39:38;3.82;90.20
57709;SHT35;42558;52.388;13.390;2023-12-14T14:42:12;3.85;90.24
57709;SHT35;42558;52.388;13.390;2023-12-14T14:44:42;3.86;90.24
57709;SHT35;42558;52.388;13.390;2023-12-14T14:47:12;3.80;90.18
57709;SHT35;42558;52.388;13.390;2023-12-14T14:49:43;3.77;90.15
57709;SHT35;42558;52.388;13.390;2023-12-14T14:52:13;3.74;90.19
57709;SHT35;42558;52.388;13.390;2023-12-14T14:54:42;3.72;90.22
57709;SHT35;42558;52.388;13.390;2023-12-14T14:57:10;3.71;90.29
57709;SHT35;42558;52.388;13.390;2023-12-14T14:59:39;3.69;90.30
57709;SHT35;42558;52.388;13.390;2023-12-14T15:02:07;3.69;90.32
57709;SHT35;42558;52.388;13.390;2023-12-14T15:04:35;3.69;90.38
57709;SHT35;42558;52.388;13.390;2023-12-14T15:07:04;3.69;90.40
57709;SHT35;42558;52.388;13.390;2023-12-14T15:09:32;3.67;90.39
57709;SHT35;42558;52.388;13.390;2023-12-14T15:12:01;3.60;90.30
57709;SHT35;42558;52.388;13.390;2023-12-14T15:14:29;3.59;90.37
57709;SHT35;42558;52.388;13.390;2023-12-14T15:16:57;3.58;90.30
57709;SHT35;42558;52.388;13.390;2023-12-14T15:19:26;3.58;90.31
57709;SHT35;42558;52.388;13.390;2023-12-14T15:21:55;3.55;90.30
57709;SHT35;42558;52.388;13.390;2023-12-14T15:24:22;3.55;90.30
57709;SHT35;42558;52.388;13.390;2023-12-14T15:26:50;3.55;90.31
57709;SHT35;42558;52.388;13.390;2023-12-14T15:29:19;3.54;90.30
57709;SHT35;42558;52.388;13.390;2023-12-14T15:31:50;3.51;90.26
57709;SHT35;42558;52.388;13.390;2023-12-14T15:34:22;3.55;90.30
57709;SHT35;42558;52.388;13.390;2023-12-14T15:36:52;3.55;90.28
57709;SHT35;42558;52.388;13.390;2023-12-14T15:39:22;3.56;90.28
57709;SHT35;42558;52.388;13.390;2023-12-14T15:41:52;3.58;90.30
57709;SHT35;42558;52.388;13.390;2023-12-14T15:44:22;3.61;90.30
57709;SHT35;42558;52.388;13.390;2023-12-14T15:46:52;3.61;90.28
57709;SHT35;42558;52.388;13.390;2023-12-14T15:49:22;3.60;90.24
57709;SHT35;42558;52.388;13.390;2023-12-14T15:51:52;3.61;90.24
57709;SHT35;42558;52.388;13.390;2023-12-14T15:54:27;3.58;90.16
57709;SHT35;42558;52.388;13.390;2023-12-14T15:56:57;3.55;90.11
57709;SHT35;42558;52.388;13.390;2023-12-14T15:59:25;3.56;90.12